createdAt,value
2022-10-02T00:00:27.190Z,1004.34
2022-10-02T00:03:35.100Z,1004.37
2022-10-02T00:06:42.893Z,1004.37
2022-10-02T00:09:50.474Z,1004.41
2022-10-02T00:12:58.461Z,1004.36
2022-10-02T00:16:06.383Z,1004.40
2022-10-02T00:19:13.935Z,1004.50
2022-10-02T00:22:21.938Z,1004.55
2022-10-02T00:25:29.124Z,1004.50
2022-10-02T00:28:37.286Z,1004.58
2022-10-02T00:31:45.136Z,1004.56
2022-10-02T00:34:52.428Z,1004.58
2022-10-02T00:38:00.618Z,1004.51
2022-10-02T00:41:08.290Z,1004.58
2022-10-02T00:44:15.671Z,1004.57
2022-10-02T00:47:23.842Z,1004.63
2022-10-02T00:50:23.379Z,1004.75
2022-10-02T00:53:31.230Z,1004.73
2022-10-02T00:56:39.304Z,1004.67
2022-10-02T00:59:47.058Z,1004.62
2022-10-02T01:02:54.434Z,1004.66
2022-10-02T01:06:02.405Z,1004.61
2022-10-02T01:09:09.913Z,1004.70
2022-10-02T01:12:17.314Z,1004.59
2022-10-02T01:15:24.799Z,1004.59
2022-10-02T01:18:32.697Z,1004.57
2022-10-02T01:21:40.132Z,1004.60
2022-10-02T01:24:47.844Z,1004.65
2022-10-02T01:27:55.895Z,1004.74
2022-10-02T01:31:03.440Z,1004.77
2022-10-02T01:34:11.163Z,1004.88
2022-10-02T01:37:19.141Z,1004.97
2022-10-02T01:40:26.341Z,1004.99
2022-10-02T01:43:34.401Z,1004.93
2022-10-02T01:46:41.861Z,1005.03
2022-10-02T01:49:49.094Z,1005.01
2022-10-02T01:52:57.095Z,1004.92
2022-10-02T01:56:05.205Z,1004.94
2022-10-02T01:59:12.356Z,1005.00
2022-10-02T02:02:20.113Z,1005.00
2022-10-02T02:05:27.737Z,1005.00
2022-10-02T02:08:35.227Z,1005.05
2022-10-02T02:11:43.188Z,1005.02
2022-10-02T02:14:50.801Z,1005.09
2022-10-02T02:17:58.219Z,1005.15
2022-10-02T02:21:05.740Z,1005.09
2022-10-02T02:24:13.669Z,1005.09
2022-10-02T02:27:21.191Z,1005.08
2022-10-02T02:30:28.731Z,1005.11
2022-10-02T02:33:36.692Z,1005.18
2022-10-02T02:36:44.462Z,1005.10
2022-10-02T02:39:51.904Z,1005.07
2022-10-02T02:42:59.424Z,1005.06
2022-10-02T02:46:06.647Z,1005.02
2022-10-02T02:49:14.525Z,1005.00
2022-10-02T02:52:22.354Z,1005.05
2022-10-02T02:55:29.457Z,1004.98
2022-10-02T02:58:37.315Z,1004.97
2022-10-02T03:01:45.334Z,1005.01
2022-10-02T03:04:52.538Z,1005.02
2022-10-02T03:08:00.550Z,1005.06
2022-10-02T03:11:08.058Z,1005.05
2022-10-02T03:14:15.718Z,1005.10
2022-10-02T03:17:23.630Z,1005.05
2022-10-02T03:20:31.332Z,1005.08
2022-10-02T03:23:38.994Z,1005.08
2022-10-02T03:26:46.991Z,1005.11
2022-10-02T03:29:54.584Z,1005.18
2022-10-02T03:33:02.331Z,1005.13
2022-10-02T03:36:10.068Z,1005.13
2022-10-02T03:39:25.109Z,1005.24
2022-10-02T03:42:22.119Z,1005.14
2022-10-02T03:45:50.044Z,1005.22
2022-10-02T03:48:34.678Z,1005.17
2022-10-02T03:51:42.148Z,1005.18
2022-10-02T03:54:49.390Z,1005.20
2022-10-02T03:57:57.389Z,1005.12
2022-10-02T04:01:04.490Z,1005.21
2022-10-02T04:04:12.462Z,1005.25
2022-10-02T04:07:20.423Z,1005.24
2022-10-02T04:10:27.501Z,1005.23
2022-10-02T04:13:35.222Z,1005.28
2022-10-02T04:16:42.932Z,1005.20
2022-10-02T04:19:50.095Z,1005.19
2022-10-02T04:22:58.185Z,1005.22
2022-10-02T04:26:05.663Z,1005.24
2022-10-02T04:29:13.096Z,1005.23
2022-10-02T04:32:20.587Z,1005.21
2022-10-02T04:35:27.978Z,1005.25
2022-10-02T04:38:35.928Z,1005.16
2022-10-02T04:41:43.769Z,1005.08
2022-10-02T04:44:51.259Z,1005.06
2022-10-02T04:47:58.763Z,1005.08
2022-10-02T04:51:05.931Z,1005.07
2022-10-02T04:54:13.781Z,1005.13
2022-10-02T04:57:21.396Z,1005.26
2022-10-02T05:00:28.584Z,1005.27
2022-10-02T05:03:36.607Z,1005.26
2022-10-02T05:06:44.141Z,1005.20
2022-10-02T05:09:51.345Z,1005.22
2022-10-02T05:12:59.354Z,1005.25
2022-10-02T05:16:07.024Z,1005.35
2022-10-02T05:19:14.617Z,1005.35
2022-10-02T05:22:22.207Z,1005.39
2022-10-02T05:25:29.418Z,1005.29
2022-10-02T05:28:37.455Z,1005.33
2022-10-02T05:31:45.416Z,1005.40
2022-10-02T05:34:52.545Z,1005.49
2022-10-02T05:38:00.794Z,1005.46
2022-10-02T05:41:08.382Z,1005.51
2022-10-02T05:44:16.185Z,1005.60
2022-10-02T05:47:24.191Z,1005.62
2022-10-02T05:50:31.884Z,1005.69
2022-10-02T05:53:39.374Z,1005.81
2022-10-02T05:56:47.525Z,1005.71
2022-10-02T05:59:55.016Z,1005.70
2022-10-02T06:03:02.328Z,1005.70
2022-10-02T06:06:09.995Z,1005.67
2022-10-02T06:09:20.010Z,1005.78
2022-10-02T06:12:28.421Z,1005.72
2022-10-02T06:15:36.197Z,1005.63
2022-10-02T06:18:44.382Z,1005.74
2022-10-02T06:21:52.151Z,1005.76
2022-10-02T06:24:59.964Z,1005.80
2022-10-02T06:28:07.663Z,1005.81
2022-10-02T06:31:15.280Z,1005.81
2022-10-02T06:34:23.602Z,1005.87
2022-10-02T06:37:31.397Z,1005.83
2022-10-02T06:40:39.056Z,1005.86
2022-10-02T06:43:47.306Z,1005.81
2022-10-02T06:46:54.994Z,1005.80
2022-10-02T06:50:02.746Z,1005.83
2022-10-02T06:53:10.603Z,1005.82
2022-10-02T06:56:17.910Z,1005.84
2022-10-02T06:59:25.847Z,1005.81
2022-10-02T07:02:34.177Z,1005.76
2022-10-02T07:05:41.425Z,1005.84
2022-10-02T07:08:49.369Z,1005.83
2022-10-02T07:11:57.093Z,1005.78
2022-10-02T07:15:04.343Z,1005.80
2022-10-02T07:18:12.530Z,1005.89
2022-10-02T07:21:20.693Z,1005.82
2022-10-02T07:24:28.264Z,1005.83
2022-10-02T07:27:36.276Z,1005.85
2022-10-02T07:30:43.934Z,1005.77
2022-10-02T07:33:51.589Z,1005.87
2022-10-02T07:36:59.395Z,1005.89
2022-10-02T07:40:06.799Z,1005.98
2022-10-02T07:43:14.242Z,1005.99
2022-10-02T07:46:21.930Z,1005.97
2022-10-02T07:49:29.862Z,1005.91
2022-10-02T07:52:37.414Z,1006.02
2022-10-02T07:55:45.102Z,1006.05
2022-10-02T07:58:52.977Z,1006.04
2022-10-02T08:02:00.674Z,1006.09
2022-10-02T08:05:08.157Z,1006.19
2022-10-02T08:08:15.693Z,1006.04
2022-10-02T08:11:22.827Z,1006.19
2022-10-02T08:14:30.597Z,1006.21
2022-10-02T08:17:38.059Z,1006.20
2022-10-02T08:20:45.579Z,1006.20
2022-10-02T08:23:53.372Z,1006.25
2022-10-02T08:27:00.950Z,1006.24
2022-10-02T08:30:08.623Z,1006.26
2022-10-02T08:33:16.613Z,1006.40
2022-10-02T08:36:23.826Z,1006.26
2022-10-02T08:39:31.778Z,1006.33
2022-10-02T08:42:39.695Z,1006.21
2022-10-02T08:45:47.694Z,1006.18
2022-10-02T08:48:55.616Z,1006.22
2022-10-02T08:52:03.476Z,1006.25
2022-10-02T08:55:10.531Z,1006.23
2022-10-02T08:58:18.400Z,1006.18
2022-10-02T09:01:25.840Z,1006.27
2022-10-02T09:04:33.411Z,1006.31
2022-10-02T09:07:40.952Z,1006.27
2022-10-02T09:10:48.491Z,1006.36
2022-10-02T09:13:55.973Z,1006.34
2022-10-02T09:17:03.893Z,1006.35
2022-10-02T09:20:11.375Z,1006.27
2022-10-02T09:23:19.023Z,1006.41
2022-10-02T09:26:26.588Z,1006.30
2022-10-02T09:29:34.627Z,1006.29
2022-10-02T09:32:42.181Z,1006.31
2022-10-02T09:35:49.819Z,1006.27
2022-10-02T09:38:57.779Z,1006.23
2022-10-02T09:42:04.938Z,1006.08
2022-10-02T09:45:12.642Z,1006.27
2022-10-02T09:48:20.603Z,1006.19
2022-10-02T09:51:27.841Z,1006.24
2022-10-02T09:54:35.667Z,1006.19
2022-10-02T09:57:43.756Z,1006.22
2022-10-02T10:00:50.935Z,1006.32
2022-10-02T10:03:58.763Z,1006.29
2022-10-02T10:07:06.309Z,1006.29
2022-10-02T10:10:13.741Z,1006.33
2022-10-02T10:13:21.528Z,1006.31
2022-10-02T10:16:28.933Z,1006.29
2022-10-02T10:19:36.511Z,1006.41
2022-10-02T10:22:44.443Z,1006.29
2022-10-02T10:25:51.563Z,1006.39
2022-10-02T10:28:58.990Z,1006.44
2022-10-02T10:32:06.551Z,1006.44
2022-10-02T10:35:14.107Z,1006.44
2022-10-02T10:38:21.675Z,1006.39
2022-10-02T10:41:29.178Z,1006.43
2022-10-02T10:44:37.056Z,1006.53
2022-10-02T10:47:44.220Z,1006.45
2022-10-02T10:50:51.690Z,1006.56
2022-10-02T10:54:01.935Z,1006.61
2022-10-02T10:57:09.332Z,1006.56
2022-10-02T11:00:17.292Z,1006.55
2022-10-02T11:03:24.973Z,1006.51
2022-10-02T11:06:32.086Z,1006.54
2022-10-02T11:09:40.035Z,1006.57
2022-10-02T11:12:47.897Z,1006.50
2022-10-02T11:15:55.235Z,1006.55
2022-10-02T11:19:03.040Z,1006.58
2022-10-02T11:22:10.180Z,1006.65
2022-10-02T11:25:17.758Z,1006.57
2022-10-02T11:28:25.910Z,1006.60
2022-10-02T11:31:34.274Z,1006.48
2022-10-02T11:34:42.856Z,1006.50
2022-10-02T11:37:50.924Z,1006.41
2022-10-02T11:40:58.941Z,1006.32
2022-10-02T11:44:08.206Z,1006.42
2022-10-02T11:47:16.727Z,1006.46
2022-10-02T11:50:25.508Z,1006.42
2022-10-02T11:53:34.386Z,1006.39
2022-10-02T11:56:42.486Z,1006.39
2022-10-02T11:59:50.394Z,1006.55
2022-10-02T12:02:59.814Z,1006.42
2022-10-02T12:06:08.743Z,1006.47
2022-10-02T12:09:16.516Z,1006.40
2022-10-02T12:12:27.718Z,1006.46
2022-10-02T12:15:25.741Z,1006.38
2022-10-02T12:18:34.371Z,1006.40
2022-10-02T12:21:42.394Z,1006.47
2022-10-02T12:24:54.731Z,1006.52
2022-10-02T12:27:53.332Z,1006.51
2022-10-02T12:31:01.787Z,1006.63
2022-10-02T12:34:10.567Z,1006.67
2022-10-02T12:37:18.579Z,1006.84
2022-10-02T12:40:27.056Z,1006.84
2022-10-02T12:43:35.380Z,1006.87
2022-10-02T12:46:43.844Z,1006.91
2022-10-02T12:49:52.140Z,1006.99
2022-10-02T12:53:00.133Z,1007.08
2022-10-02T12:56:08.975Z,1007.11
2022-10-02T12:59:17.326Z,1007.06
2022-10-02T13:02:42.849Z,1007.10
2022-10-02T13:05:30.477Z,1007.07
2022-10-02T13:08:39.646Z,1007.06
2022-10-02T13:11:47.240Z,1006.95
2022-10-02T13:14:55.023Z,1007.08
2022-10-02T13:18:03.705Z,1007.02
2022-10-02T13:21:11.095Z,1006.92
2022-10-02T13:24:19.468Z,1006.99
2022-10-02T13:27:31.272Z,1007.00
2022-10-02T13:30:28.789Z,1006.98
2022-10-02T13:33:37.368Z,1006.88
2022-10-02T13:36:45.591Z,1007.00
2022-10-02T13:39:53.791Z,1007.11
2022-10-02T13:43:02.572Z,1007.06
2022-10-02T13:46:10.533Z,1007.05
2022-10-02T13:49:18.345Z,1007.02
2022-10-02T13:52:25.775Z,1007.04
2022-10-02T13:55:33.803Z,1007.02
2022-10-02T13:58:42.197Z,1006.95
2022-10-02T14:01:50.495Z,1006.99
2022-10-02T14:04:59.333Z,1006.92
2022-10-02T14:08:07.261Z,1007.02
2022-10-02T14:11:15.370Z,1007.05
2022-10-02T14:14:23.596Z,1006.96
2022-10-02T14:17:31.113Z,1007.04
2022-10-02T14:20:39.524Z,1007.01
2022-10-02T14:23:47.193Z,1007.00
2022-10-02T14:26:54.705Z,1006.97
2022-10-02T14:30:03.289Z,1007.02
2022-10-02T14:33:11.619Z,1007.10
2022-10-02T14:36:19.127Z,1007.17
2022-10-02T14:39:27.672Z,1007.22
2022-10-02T14:42:36.102Z,1007.25
2022-10-02T14:45:44.269Z,1007.27
2022-10-02T14:48:52.403Z,1007.31
2022-10-02T14:52:00.347Z,1007.25
2022-10-02T14:55:08.495Z,1007.32
2022-10-02T14:58:16.637Z,1007.31
2022-10-02T15:01:24.273Z,1007.30
2022-10-02T15:04:32.785Z,1007.30
2022-10-02T15:07:40.902Z,1007.35
2022-10-02T15:10:48.598Z,1007.40
2022-10-02T15:13:56.853Z,1007.36
2022-10-02T15:17:04.936Z,1007.44
2022-10-02T15:20:12.808Z,1007.58
2022-10-02T15:23:22.224Z,1007.54
2022-10-02T15:26:30.685Z,1007.55
2022-10-02T15:29:39.073Z,1007.62
2022-10-02T15:32:46.706Z,1007.71
2022-10-02T15:35:54.655Z,1007.77
2022-10-02T15:39:02.306Z,1007.89
2022-10-02T15:42:09.967Z,1008.16
2022-10-02T15:45:17.578Z,1008.27
2022-10-02T15:48:25.158Z,1008.31
2022-10-02T15:51:32.867Z,1008.25
2022-10-02T15:54:40.880Z,1008.32
2022-10-02T15:57:48.249Z,1008.28
2022-10-02T16:00:56.135Z,1008.26
2022-10-02T16:04:03.782Z,1008.28
2022-10-02T16:07:11.214Z,1008.36
2022-10-02T16:10:18.629Z,1008.42
2022-10-02T16:13:26.153Z,1008.47
2022-10-02T16:16:34.090Z,1008.50
2022-10-02T16:19:42.178Z,1008.50
2022-10-02T16:22:50.733Z,1008.63
2022-10-02T16:25:58.940Z,1008.60
2022-10-02T16:29:07.670Z,1008.73
2022-10-02T16:32:15.382Z,1008.75
2022-10-02T16:35:23.380Z,1008.79
2022-10-02T16:38:31.932Z,1008.80
2022-10-02T16:41:39.312Z,1008.81
2022-10-02T16:44:47.542Z,1008.93
2022-10-02T16:47:55.606Z,1008.92
2022-10-02T16:51:02.935Z,1009.03
2022-10-02T16:54:10.855Z,1009.12
2022-10-02T16:57:18.913Z,1009.11
2022-10-02T17:00:26.027Z,1009.16
2022-10-02T17:03:33.968Z,1009.24
2022-10-02T17:06:41.419Z,1009.32
2022-10-02T17:09:48.601Z,1009.38
2022-10-02T17:12:58.027Z,1009.43
2022-10-02T17:16:05.907Z,1009.47
2022-10-02T17:19:13.609Z,1009.44
2022-10-02T17:22:23.828Z,1009.53
2022-10-02T17:25:24.648Z,1009.65
2022-10-02T17:28:32.862Z,1009.73
2022-10-02T17:31:40.682Z,1009.68
2022-10-02T17:34:49.325Z,1009.73
2022-10-02T17:37:57.083Z,1009.77
2022-10-02T17:41:04.890Z,1009.80
2022-10-02T17:44:13.064Z,1009.80
2022-10-02T17:47:20.798Z,1009.92
2022-10-02T17:50:28.408Z,1009.92
2022-10-02T17:53:36.772Z,1010.02
2022-10-02T17:56:43.979Z,1010.00
2022-10-02T17:59:51.700Z,1010.07
2022-10-02T18:03:00.093Z,1010.15
2022-10-02T18:06:07.423Z,1010.24
2022-10-02T18:09:15.641Z,1010.29
2022-10-02T18:12:23.813Z,1010.31
2022-10-02T18:15:31.275Z,1010.27
2022-10-02T18:18:39.078Z,1010.32
2022-10-02T18:21:47.193Z,1010.38
2022-10-02T18:24:54.567Z,1010.48
2022-10-02T18:28:03.001Z,1010.51
2022-10-02T18:31:11.073Z,1010.59
2022-10-02T18:34:18.708Z,1010.57
2022-10-02T18:37:26.821Z,1010.60
2022-10-02T18:40:34.630Z,1010.72
2022-10-02T18:43:42.431Z,1010.66
2022-10-02T18:46:50.703Z,1010.70
2022-10-02T18:49:58.643Z,1010.82
2022-10-02T18:53:06.302Z,1010.83
2022-10-02T18:56:14.014Z,1010.81
2022-10-02T18:59:21.813Z,1010.81
2022-10-02T19:02:29.676Z,1010.91
2022-10-02T19:05:37.245Z,1010.90
2022-10-02T19:08:45.435Z,1010.93
2022-10-02T19:11:53.185Z,1010.94
2022-10-02T19:15:00.907Z,1010.97
2022-10-02T19:18:08.628Z,1010.96
2022-10-02T19:21:16.308Z,1011.04
2022-10-02T19:24:23.919Z,1011.11
2022-10-02T19:27:32.383Z,1011.18
2022-10-02T19:30:43.493Z,1011.20
2022-10-02T19:33:42.760Z,1011.25
2022-10-02T19:36:51.023Z,1011.27
2022-10-02T19:39:58.444Z,1011.34
2022-10-02T19:43:06.615Z,1011.37
2022-10-02T19:46:13.991Z,1011.42
2022-10-02T19:49:21.588Z,1011.48
2022-10-02T19:52:29.807Z,1011.55
2022-10-02T19:55:37.083Z,1011.57
2022-10-02T19:58:44.782Z,1011.63
2022-10-02T20:01:52.929Z,1011.60
2022-10-02T20:05:00.281Z,1011.66
2022-10-02T20:08:08.191Z,1011.68
2022-10-02T20:11:15.968Z,1011.68
2022-10-02T20:14:23.642Z,1011.63
2022-10-02T20:17:31.473Z,1011.72
2022-10-02T20:20:39.415Z,1011.72
2022-10-02T20:23:47.251Z,1011.78
2022-10-02T20:26:54.622Z,1011.76
2022-10-02T20:30:02.126Z,1011.80
2022-10-02T20:33:09.886Z,1011.82
2022-10-02T20:36:17.388Z,1011.87
2022-10-02T20:39:25.410Z,1011.94
2022-10-02T20:42:33.009Z,1011.95
2022-10-02T20:45:40.640Z,1011.99
2022-10-02T20:49:07.623Z,1012.07
2022-10-02T20:51:53.512Z,1012.05
2022-10-02T20:55:01.332Z,1012.13
2022-10-02T20:58:09.271Z,1012.23
2022-10-02T21:01:17.108Z,1012.16
2022-10-02T21:04:24.683Z,1012.22
2022-10-02T21:07:32.886Z,1012.21
2022-10-02T21:10:40.104Z,1012.23
2022-10-02T21:13:48.075Z,1012.31
2022-10-02T21:16:56.221Z,1012.30
2022-10-02T21:20:03.476Z,1012.32
2022-10-02T21:23:11.599Z,1012.36
2022-10-02T21:26:19.171Z,1012.35
2022-10-02T21:29:26.960Z,1012.36
2022-10-02T21:32:34.962Z,1012.54
2022-10-02T21:35:42.309Z,1012.53
2022-10-02T21:38:50.480Z,1012.55
2022-10-02T21:41:58.128Z,1012.56
2022-10-02T21:45:06.265Z,1012.53
2022-10-02T21:48:13.972Z,1012.59
2022-10-02T21:51:21.695Z,1012.59
2022-10-02T21:54:29.853Z,1012.58
2022-10-02T21:57:37.482Z,1012.65
2022-10-02T22:00:45.206Z,1012.69
2022-10-02T22:03:53.396Z,1012.72
2022-10-02T22:07:00.566Z,1012.75
2022-10-02T22:10:08.645Z,1012.69
2022-10-02T22:13:15.816Z,1012.78
2022-10-02T22:16:23.903Z,1012.76
2022-10-02T22:19:31.658Z,1012.76
2022-10-02T22:22:38.881Z,1012.82
2022-10-02T22:25:46.945Z,1012.85
2022-10-02T22:28:54.849Z,1012.87
2022-10-02T22:32:02.100Z,1012.93
2022-10-02T22:35:10.178Z,1012.94
2022-10-02T22:38:18.285Z,1012.96
2022-10-02T22:41:25.947Z,1012.99
2022-10-02T22:44:33.664Z,1013.03
2022-10-02T22:47:41.462Z,1013.09
2022-10-02T22:50:49.175Z,1012.98
2022-10-02T22:53:56.989Z,1013.06
2022-10-02T22:57:04.716Z,1013.13
2022-10-02T23:00:12.386Z,1013.12
2022-10-02T23:03:20.109Z,1013.12
2022-10-02T23:06:30.740Z,1013.17
2022-10-02T23:09:28.195Z,1013.17
2022-10-02T23:12:36.821Z,1013.15
2022-10-02T23:15:44.803Z,1013.11
2022-10-02T23:18:52.519Z,1013.12
2022-10-02T23:22:00.092Z,1013.15
2022-10-02T23:25:08.040Z,1013.12
2022-10-02T23:28:15.396Z,1013.15
2022-10-02T23:31:23.349Z,1013.17
2022-10-02T23:34:31.303Z,1013.17
2022-10-02T23:37:38.600Z,1013.25
2022-10-02T23:40:46.605Z,1013.28
2022-10-02T23:43:54.126Z,1013.27
2022-10-02T23:47:01.358Z,1013.26
2022-10-02T23:50:09.436Z,1013.39
2022-10-02T23:53:16.759Z,1013.28
2022-10-02T23:56:24.779Z,1013.30
2022-10-02T23:59:32.407Z,1013.31
